VOCI Airport Information

Runway Information
Runway 09 Length 11155 ft width 148 ft
Elevation 28 ft Threshold 0 ft Heading 88
Runway 27 Length 11155 ft Width 148 ft
Elevation 30 ft Threshold 0 ft Heading 268
Airport Frequencies
Type APP Name APP Frequency 119.75 MHZ
Type ATIS Name ATIS Frequency 126.2 MHZ
Type GND Name GND Frequency 121.75 MHZ
Type TWR Name TWR Frequency 118.8 MHZ
Airport Navaids
Type NDB Name Cochin Intl Frequency 268 KHZ
Type NDB Name Kolkata Frequency 293 KHZ
Type NDB Name Cochin Intl Frequency 217 KHZ
Type VOR-DME Name Cochin Intl Frequency 113500 KHZ
Type VOR-DME Name Cochin Intl Frequency 117300 KHZ
Airport Weather Information & NOTAM
ADDS - METARS form results

(0224 UTC 27 June 2019)
Data provider http://aviationweather.gov/metar/data/
 
METAR text: VOCI 270200Z 08005KT 2500 BR FEW010 SCT012 27/26 Q1009 BECMG 3000 BR
Conditions at: VOCI (COCHIN INTL , IN) observed 0200 UTC 27 June 2019
Temperature: 27.0°C (81°F)
Dewpoint: 26.0°C (79°F) [RH = 94%]
Pressure (altimeter): 29.79 inches Hg (1009.0 mb)
Winds: from the E (80 degrees) at 6 MPH (5 knots; 2.6 m/s)
Visibility: 1.55 miles (2.49 km)
Ceiling: at least 12,000 feet AGL
Clouds: few clouds at 1000 feet AGL
scattered clouds at 1200 feet AGL
Weather: BR  (mist)

METAR text: VOCI 270130Z 08002KT 2500 BR SCT015 SCT080 26/25 Q1009 NOSIG
Conditions at: VOCI (COCHIN INTL , IN) observed 0130 UTC 27 June 2019
Temperature: 26.0°C (79°F)
Dewpoint: 25.0°C (77°F) [RH = 94%]
Pressure (altimeter): 29.79 inches Hg (1009.0 mb)
Winds: from the E (80 degrees) at 2 MPH (2 knots; 1.0 m/s)
Visibility: 1.55 miles (2.49 km)
Ceiling: at least 12,000 feet AGL
Clouds: scattered clouds at 1500 feet AGL
scattered clouds at 8000 feet AGL
Weather: BR  (mist)

Forecast for: COR
Text: TAF COR VOCI 270200Z 2703/2712 08005KT 2500 BR SCT015 BKN080
Forecast period: 0300 to 0400 UTC 27 June 2019
Forecast type: FROM: standard forecast or significant change
Winds: from the E (80 degrees) at 6 MPH (5 knots; 2.6 m/s)
Visibility: 1.55 miles (2.49 km)
Ceiling: 8000 feet AGL
Clouds: scattered clouds at 1500 feet AGL
broken clouds at 8000 feet AGL
Weather: BR  (mist)
Text: BECMG 2704/2706 25010KT 5000 HZ
Forecast period: 0400 to 1200 UTC 27 June 2019
Forecast type: BECOMING: Conditions expected to become as follows by 0600 UTC 27 June 2019
Winds: from the WSW (250 degrees) at 12 MPH (10 knots; 5.1 m/s)
Visibility: 3 miles (5 km)
Ceiling: 8000 feet AGL
Clouds: scattered clouds at 1500 feet AGL
broken clouds at 8000 feet AGL
Weather: HZ  (haze)
Text: TEMPO 2710/2712 4000 TS HZ SCT010 FEW025 BKN080
Forecast period: 1000 to 1200 UTC 27 June 2019
Forecast type: TEMPORARY: The following changes expected for less than half the time period
Visibility: 2.49 miles (4.01 km)
Ceiling: 8000 feet AGL
Clouds: scattered clouds at 1000 feet AGL
few clouds at 2500 feet AGL
broken clouds at 8000 feet AGL
Weather: TS HZ  (thunderstorm, haze)